sensor_id;sensor_type;location;lat;lon;timestamp;temperature;humidity
3614;DHT22;1821;50.936;6.854;2023-08-12T00:00:05;20.80;99.90
3614;DHT22;1821;50.936;6.854;2023-08-12T00:00:53;20.80;99.90
3614;DHT22;1821;50.936;6.854;2023-08-12T00:01:35;20.70;99.90
3614;DHT22;1821;50.936;6.854;2023-08-12T00:02:17;20.90;99.90
3614;DHT22;1821;50.936;6.854;2023-08-12T00:02:59;20.80;99.90
3614;DHT22;1821;50.936;6.854;2023-08-12T00:03:43;20.80;1.00
3614;DHT22;1821;50.936;6.854;2023-08-12T00:04:25;20.80;1.00
3614;DHT22;1821;50.936;6.854;2023-08-12T00:05:08;20.80;1.00
3614;DHT22;1821;50.936;6.854;2023-08-12T00:05:52;20.90;1.00
3614;DHT22;1821;50.936;6.854;2023-08-12T00:06:34;20.70;1.00
3614;DHT22;1821;50.936;6.854;2023-08-12T00:07:16;20.80;1.00
3614;DHT22;1821;50.936;6.854;2023-08-12T00:08:01;20.80;99.90
3614;DHT22;1821;50.936;6.854;2023-08-12T00:08:43;20.70;99.90
3614;DHT22;1821;50.936;6.854;2023-08-12T00:09:25;20.70;99.90
3614;DHT22;1821;50.936;6.854;2023-08-12T00:10:08;20.80;1.00
3614;DHT22;1821;50.936;6.854;2023-08-12T00:10:50;20.80;1.00
3614;DHT22;1821;50.936;6.854;2023-08-12T00:11:32;20.80;1.00
3614;DHT22;1821;50.936;6.854;2023-08-12T00:12:14;20.80;1.00
3614;DHT22;1821;50.936;6.854;2023-08-12T00:12:55;20.90;1.00
3614;DHT22;1821;50.936;6.854;2023-08-12T00:13:37;20.80;1.00
3614;DHT22;1821;50.936;6.854;2023-08-12T00:14:19;20.80;1.00
3614;DHT22;1821;50.936;6.854;2023-08-12T00:15:02;20.80;1.00
3614;DHT22;1821;50.936;6.854;2023-08-12T00:15:45;20.80;1.00
3614;DHT22;1821;50.936;6.854;2023-08-12T00:16:28;20.70;1.00
3614;DHT22;1821;50.936;6.854;2023-08-12T00:17:10;20.80;50.80
3614;DHT22;1821;50.936;6.854;2023-08-12T00:17:52;20.80;91.80
3614;DHT22;1821;50.936;6.854;2023-08-12T00:18:34;20.60;99.90
3614;DHT22;1821;50.936;6.854;2023-08-12T00:19:20;20.60;99.90
3614;DHT22;1821;50.936;6.854;2023-08-12T00:20:06;20.80;99.90
3614;DHT22;1821;50.936;6.854;2023-08-12T00:21:33;20.70;99.90
3614;DHT22;1821;50.936;6.854;2023-08-12T00:22:17;20.90;99.90
3614;DHT22;1821;50.936;6.854;2023-08-12T00:22:59;20.70;1.00
3614;DHT22;1821;50.936;6.854;2023-08-12T00:23:41;20.70;1.00
3614;DHT22;1821;50.936;6.854;2023-08-12T00:24:24;20.70;1.00
3614;DHT22;1821;50.936;6.854;2023-08-12T00:25:07;20.70;89.10
3614;DHT22;1821;50.936;6.854;2023-08-12T00:25:49;20.70;99.90
3614;DHT22;1821;50.936;6.854;2023-08-12T00:26:31;20.60;99.90
3614;DHT22;1821;50.936;6.854;2023-08-12T00:27:13;20.60;99.90
3614;DHT22;1821;50.936;6.854;2023-08-12T00:27:57;20.60;99.90
3614;DHT22;1821;50.936;6.854;2023-08-12T00:28:39;20.60;99.90
3614;DHT22;1821;50.936;6.854;2023-08-12T00:29:21;20.70;1.00
3614;DHT22;1821;50.936;6.854;2023-08-12T00:30:06;20.70;1.00
3614;DHT22;1821;50.936;6.854;2023-08-12T00:30:48;20.70;1.00
3614;DHT22;1821;50.936;6.854;2023-08-12T00:31:31;20.70;1.00
3614;DHT22;1821;50.936;6.854;2023-08-12T00:32:13;20.70;1.00
3614;DHT22;1821;50.936;6.854;2023-08-12T00:32:57;20.70;1.00
3614;DHT22;1821;50.936;6.854;2023-08-12T00:33:40;20.60;1.00
3614;DHT22;1821;50.936;6.854;2023-08-12T00:34:22;20.70;1.00
3614;DHT22;1821;50.936;6.854;2023-08-12T00:35:04;20.70;1.00
3614;DHT22;1821;50.936;6.854;2023-08-12T00:35:47;20.70;1.00
3614;DHT22;1821;50.936;6.854;2023-08-12T00:36:29;20.80;1.00
3614;DHT22;1821;50.936;6.854;2023-08-12T00:37:10;20.70;1.00
3614;DHT22;1821;50.936;6.854;2023-08-12T00:37:53;20.70;1.00
3614;DHT22;1821;50.936;6.854;2023-08-12T00:38:37;20.70;1.00
3614;DHT22;1821;50.936;6.854;2023-08-12T00:39:19;20.50;1.00
3614;DHT22;1821;50.936;6.854;2023-08-12T00:40:01;20.70;1.00
3614;DHT22;1821;50.936;6.854;2023-08-12T00:40:43;20.70;1.00
3614;DHT22;1821;50.936;6.854;2023-08-12T00:41:25;20.70;1.00
3614;DHT22;1821;50.936;6.854;2023-08-12T00:42:07;20.50;1.00
3614;DHT22;1821;50.936;6.854;2023-08-12T00:42:49;20.70;1.00
3614;DHT22;1821;50.936;6.854;2023-08-12T00:43:31;20.70;1.00
3614;DHT22;1821;50.936;6.854;2023-08-12T00:44:13;20.70;1.00
3614;DHT22;1821;50.936;6.854;2023-08-12T00:44:55;20.80;1.00
3614;DHT22;1821;50.936;6.854;2023-08-12T00:45:37;20.70;1.00
3614;DHT22;1821;50.936;6.854;2023-08-12T00:46:19;20.70;1.00
3614;DHT22;1821;50.936;6.854;2023-08-12T00:47:01;20.70;1.00
3614;DHT22;1821;50.936;6.854;2023-08-12T00:47:45;20.70;1.00
3614;DHT22;1821;50.936;6.854;2023-08-12T00:48:27;20.70;1.00
3614;DHT22;1821;50.936;6.854;2023-08-12T00:49:53;20.70;1.00
3614;DHT22;1821;50.936;6.854;2023-08-12T00:50:37;20.70;9.50
3614;DHT22;1821;50.936;6.854;2023-08-12T00:51:21;20.80;31.30
3614;DHT22;1821;50.936;6.854;2023-08-12T00:52:03;20.80;2.80
3614;DHT22;1821;50.936;6.854;2023-08-12T00:53:28;20.80;1.00
3614;DHT22;1821;50.936;6.854;2023-08-12T00:54:14;20.80;1.00
3614;DHT22;1821;50.936;6.854;2023-08-12T00:54:57;20.70;1.00
3614;DHT22;1821;50.936;6.854;2023-08-12T00:55:39;20.70;1.00
3614;DHT22;1821;50.936;6.854;2023-08-12T00:56:21;20.70;1.00
3614;DHT22;1821;50.936;6.854;2023-08-12T00:57:03;20.70;1.00
3614;DHT22;1821;50.936;6.854;2023-08-12T00:57:45;20.60;1.70
3614;DHT22;1821;50.936;6.854;2023-08-12T00:58:27;20.70;8.80
3614;DHT22;1821;50.936;6.854;2023-08-12T00:59:10;20.70;1.00
3614;DHT22;1821;50.936;6.854;2023-08-12T00:59:56;20.70;37.40
3614;DHT22;1821;50.936;6.854;2023-08-12T01:00:41;20.70;40.60
3614;DHT22;1821;50.936;6.854;2023-08-12T01:01:23;20.70;11.60
3614;DHT22;1821;50.936;6.854;2023-08-12T01:02:05;20.70;1.00
3614;DHT22;1821;50.936;6.854;2023-08-12T01:02:48;20.70;16.40
3614;DHT22;1821;50.936;6.854;2023-08-12T01:03:31;20.80;35.40
3614;DHT22;1821;50.936;6.854;2023-08-12T01:04:13;20.80;1.00
3614;DHT22;1821;50.936;6.854;2023-08-12T01:04:58;20.60;1.00
3614;DHT22;1821;50.936;6.854;2023-08-12T01:05:42;20.70;1.00
3614;DHT22;1821;50.936;6.854;2023-08-12T01:06:24;20.70;1.00
3614;DHT22;1821;50.936;6.854;2023-08-12T01:07:06;20.80;1.00
3614;DHT22;1821;50.936;6.854;2023-08-12T01:07:52;20.70;1.00
3614;DHT22;1821;50.936;6.854;2023-08-12T01:08:35;20.60;1.00
3614;DHT22;1821;50.936;6.854;2023-08-12T01:09:17;20.70;1.00
3614;DHT22;1821;50.936;6.854;2023-08-12T01:09:59;20.60;4.70
3614;DHT22;1821;50.936;6.854;2023-08-12T01:10:45;20.70;99.90
3614;DHT22;1821;50.936;6.854;2023-08-12T01:12:29;20.70;99.90
3614;DHT22;1821;50.936;6.854;2023-08-12T01:14:22;20.80;70.90
3614;DHT22;1821;50.936;6.854;2023-08-12T01:15:13;20.80;99.90
3614;DHT22;1821;50.936;6.854;2023-08-12T01:15:59;20.70;29.10
3614;DHT22;1821;50.936;6.854;2023-08-12T01:16:46;20.70;1.00
3614;DHT22;1821;50.936;6.854;2023-08-12T01:17:29;20.90;1.00
3614;DHT22;1821;50.936;6.854;2023-08-12T01:18:13;20.70;1.00
3614;DHT22;1821;50.936;6.854;2023-08-12T01:18:56;20.70;1.00
3614;DHT22;1821;50.936;6.854;2023-08-12T01:19:40;20.70;1.00
3614;DHT22;1821;50.936;6.854;2023-08-12T01:20:23;20.70;1.00
3614;DHT22;1821;50.936;6.854;2023-08-12T01:21:10;20.60;10.40
3614;DHT22;1821;50.936;6.854;2023-08-12T01:21:55;20.70;99.90
3614;DHT22;1821;50.936;6.854;2023-08-12T01:22:41;20.70;99.90
3614;DHT22;1821;50.936;6.854;2023-08-12T01:23:25;20.70;99.90
3614;DHT22;1821;50.936;6.854;2023-08-12T01:24:08;20.70;99.90
3614;DHT22;1821;50.936;6.854;2023-08-12T01:24:51;20.70;99.90
3614;DHT22;1821;50.936;6.854;2023-08-12T01:25:33;20.70;99.90
3614;DHT22;1821;50.936;6.854;2023-08-12T01:26:17;20.70;99.50
3614;DHT22;1821;50.936;6.854;2023-08-12T01:26:59;20.70;72.20
3614;DHT22;1821;50.936;6.854;2023-08-12T01:27:43;20.70;30.10
3614;DHT22;1821;50.936;6.854;2023-08-12T01:28:25;20.70;1.00
3614;DHT22;1821;50.936;6.854;2023-08-12T01:29:07;20.70;10.80
3614;DHT22;1821;50.936;6.854;2023-08-12T01:29:51;20.70;1.00
3614;DHT22;1821;50.936;6.854;2023-08-12T01:30:55;20.70;1.00
3614;DHT22;1821;50.936;6.854;2023-08-12T01:31:50;20.80;1.00
3614;DHT22;1821;50.936;6.854;2023-08-12T01:32:41;20.60;1.00
3614;DHT22;1821;50.936;6.854;2023-08-12T01:33:33;20.70;16.00
3614;DHT22;1821;50.936;6.854;2023-08-12T01:34:25;20.70;1.00
3614;DHT22;1821;50.936;6.854;2023-08-12T01:35:26;20.70;1.00
3614;DHT22;1821;50.936;6.854;2023-08-12T01:36:19;20.70;1.00
3614;DHT22;1821;50.936;6.854;2023-08-12T01:37:05;20.70;1.00
3614;DHT22;1821;50.936;6.854;2023-08-12T01:37:51;20.70;1.00
3614;DHT22;1821;50.936;6.854;2023-08-12T01:38:38;20.70;85.80
3614;DHT22;1821;50.936;6.854;2023-08-12T01:39:22;20.70;67.60
3614;DHT22;1821;50.936;6.854;2023-08-12T01:40:05;20.70;82.50
3614;DHT22;1821;50.936;6.854;2023-08-12T01:40:48;20.70;14.30
3614;DHT22;1821;50.936;6.854;2023-08-12T01:41:30;20.70;47.70
3614;DHT22;1821;50.936;6.854;2023-08-12T01:42:13;20.70;46.20
3614;DHT22;1821;50.936;6.854;2023-08-12T01:42:55;20.70;3.30
3614;DHT22;1821;50.936;6.854;2023-08-12T01:43:38;20.60;1.00
3614;DHT22;1821;50.936;6.854;2023-08-12T01:44:20;20.70;1.00
3614;DHT22;1821;50.936;6.854;2023-08-12T01:45:02;20.70;1.00
3614;DHT22;1821;50.936;6.854;2023-08-12T01:45:45;20.70;1.00
3614;DHT22;1821;50.936;6.854;2023-08-12T01:46:27;20.70;1.00
3614;DHT22;1821;50.936;6.854;2023-08-12T01:47:09;20.70;1.00
3614;DHT22;1821;50.936;6.854;2023-08-12T01:47:51;20.70;1.00
3614;DHT22;1821;50.936;6.854;2023-08-12T01:48:33;20.70;1.00
3614;DHT22;1821;50.936;6.854;2023-08-12T01:49:15;20.70;1.00
3614;DHT22;1821;50.936;6.854;2023-08-12T01:49:57;20.70;1.00
3614;DHT22;1821;50.936;6.854;2023-08-12T01:50:39;20.70;1.00
3614;DHT22;1821;50.936;6.854;2023-08-12T01:51:21;20.90;1.00
3614;DHT22;1821;50.936;6.854;2023-08-12T01:52:05;20.70;1.00
3614;DHT22;1821;50.936;6.854;2023-08-12T01:52:47;20.90;1.00
3614;DHT22;1821;50.936;6.854;2023-08-12T01:53:30;20.70;1.00
3614;DHT22;1821;50.936;6.854;2023-08-12T01:54:11;20.70;1.00
3614;DHT22;1821;50.936;6.854;2023-08-12T01:54:53;20.70;1.00
3614;DHT22;1821;50.936;6.854;2023-08-12T01:55:38;20.70;1.00
3614;DHT22;1821;50.936;6.854;2023-08-12T01:56:20;20.70;1.00
3614;DHT22;1821;50.936;6.854;2023-08-12T01:57:03;20.70;1.00
3614;DHT22;1821;50.936;6.854;2023-08-12T01:57:47;20.70;1.00
3614;DHT22;1821;50.936;6.854;2023-08-12T01:58:28;20.70;1.00
3614;DHT22;1821;50.936;6.854;2023-08-12T01:59:10;20.70;1.00
3614;DHT22;1821;50.936;6.854;2023-08-12T01:59:52;20.60;1.00
3614;DHT22;1821;50.936;6.854;2023-08-12T02:00:35;20.60;1.00
3614;DHT22;1821;50.936;6.854;2023-08-12T02:01:17;20.70;1.00
3614;DHT22;1821;50.936;6.854;2023-08-12T02:02:01;20.70;1.00
3614;DHT22;1821;50.936;6.854;2023-08-12T02:02:43;20.70;1.00
3614;DHT22;1821;50.936;6.854;2023-08-12T02:03:31;20.60;1.00
3614;DHT22;1821;50.936;6.854;2023-08-12T02:04:13;20.70;1.00
3614;DHT22;1821;50.936;6.854;2023-08-12T02:04:55;20.70;1.00
3614;DHT22;1821;50.936;6.854;2023-08-12T02:05:36;20.70;1.00
3614;DHT22;1821;50.936;6.854;2023-08-12T02:06:22;20.70;1.00
3614;DHT22;1821;50.936;6.854;2023-08-12T02:07:05;20.70;1.00
3614;DHT22;1821;50.936;6.854;2023-08-12T02:07:46;20.70;1.00
3614;DHT22;1821;50.936;6.854;2023-08-12T02:08:31;20.70;1.00
3614;DHT22;1821;50.936;6.854;2023-08-12T02:09:13;20.70;1.00
3614;DHT22;1821;50.936;6.854;2023-08-12T02:09:55;20.80;1.00
3614;DHT22;1821;50.936;6.854;2023-08-12T02:10:36;20.70;1.00
3614;DHT22;1821;50.936;6.854;2023-08-12T02:11:18;20.80;1.00
3614;DHT22;1821;50.936;6.854;2023-08-12T02:12:03;20.70;1.00
3614;DHT22;1821;50.936;6.854;2023-08-12T02:12:45;20.70;1.00
3614;DHT22;1821;50.936;6.854;2023-08-12T02:13:27;20.70;1.00
3614;DHT22;1821;50.936;6.854;2023-08-12T02:14:09;20.80;1.00
3614;DHT22;1821;50.936;6.854;2023-08-12T02:14:51;20.70;1.00
3614;DHT22;1821;50.936;6.854;2023-08-12T02:15:35;20.70;1.00
3614;DHT22;1821;50.936;6.854;2023-08-12T02:16:17;20.70;1.00
3614;DHT22;1821;50.936;6.854;2023-08-12T02:16:59;20.70;1.00
3614;DHT22;1821;50.936;6.854;2023-08-12T02:17:41;20.70;1.00
3614;DHT22;1821;50.936;6.854;2023-08-12T02:18:26;20.70;1.00
3614;DHT22;1821;50.936;6.854;2023-08-12T02:19:07;20.60;1.00
3614;DHT22;1821;50.936;6.854;2023-08-12T02:19:50;20.70;1.00
3614;DHT22;1821;50.936;6.854;2023-08-12T02:20:31;20.70;1.00
3614;DHT22;1821;50.936;6.854;2023-08-12T02:21:13;20.70;1.00
3614;DHT22;1821;50.936;6.854;2023-08-12T02:21:55;20.70;1.00
3614;DHT22;1821;50.936;6.854;2023-08-12T02:22:37;20.80;1.00
3614;DHT22;1821;50.936;6.854;2023-08-12T02:23:19;20.80;99.90
3614;DHT22;1821;50.936;6.854;2023-08-12T02:24:01;20.80;99.90
3614;DHT22;1821;50.936;6.854;2023-08-12T02:24:46;20.80;99.90
3614;DHT22;1821;50.936;6.854;2023-08-12T02:25:27;20.80;99.90
3614;DHT22;1821;50.936;6.854;2023-08-12T02:26:10;20.70;99.90
3614;DHT22;1821;50.936;6.854;2023-08-12T02:26:51;20.80;99.90
3614;DHT22;1821;50.936;6.854;2023-08-12T02:27:35;20.70;99.90
3614;DHT22;1821;50.936;6.854;2023-08-12T02:28:17;20.70;95.00
3614;DHT22;1821;50.936;6.854;2023-08-12T02:29:02;20.70;99.90
3614;DHT22;1821;50.936;6.854;2023-08-12T02:29:46;20.70;99.90
3614;DHT22;1821;50.936;6.854;2023-08-12T02:30:29;20.70;99.90
3614;DHT22;1821;50.936;6.854;2023-08-12T02:31:12;20.70;99.90
3614;DHT22;1821;50.936;6.854;2023-08-12T02:31:54;20.70;99.90
3614;DHT22;1821;50.936;6.854;2023-08-12T02:32:36;20.60;99.90
3614;DHT22;1821;50.936;6.854;2023-08-12T02:33:18;20.60;99.90
3614;DHT22;1821;50.936;6.854;2023-08-12T02:34:00;20.60;99.90
3614;DHT22;1821;50.936;6.854;2023-08-12T02:34:41;20.60;99.90
3614;DHT22;1821;50.936;6.854;2023-08-12T02:35:26;20.70;99.90
3614;DHT22;1821;50.936;6.854;2023-08-12T02:36:07;20.70;99.90
3614;DHT22;1821;50.936;6.854;2023-08-12T02:36:50;20.60;99.90
3614;DHT22;1821;50.936;6.854;2023-08-12T02:37:31;20.70;99.90
3614;DHT22;1821;50.936;6.854;2023-08-12T02:38:16;20.70;99.90
3614;DHT22;1821;50.936;6.854;2023-08-12T02:38:57;20.90;99.90
3614;DHT22;1821;50.936;6.854;2023-08-12T02:39:40;20.70;99.90
3614;DHT22;1821;50.936;6.854;2023-08-12T02:40:21;20.70;99.90
3614;DHT22;1821;50.936;6.854;2023-08-12T02:41:03;20.70;99.90
3614;DHT22;1821;50.936;6.854;2023-08-12T02:41:45;20.70;17.60
3614;DHT22;1821;50.936;6.854;2023-08-12T02:42:27;20.70;24.30
3614;DHT22;1821;50.936;6.854;2023-08-12T02:43:10;20.70;11.30
3614;DHT22;1821;50.936;6.854;2023-08-12T02:43:53;20.60;1.00
3614;DHT22;1821;50.936;6.854;2023-08-12T02:44:35;20.70;1.00
3614;DHT22;1821;50.936;6.854;2023-08-12T02:45:19;20.70;1.00
3614;DHT22;1821;50.936;6.854;2023-08-12T02:46:01;20.60;1.00
3614;DHT22;1821;50.936;6.854;2023-08-12T02:46:43;20.70;1.00
3614;DHT22;1821;50.936;6.854;2023-08-12T02:47:28;20.70;1.00
3614;DHT22;1821;50.936;6.854;2023-08-12T02:48:10;20.60;1.00
3614;DHT22;1821;50.936;6.854;2023-08-12T02:48:53;20.60;1.00
3614;DHT22;1821;50.936;6.854;2023-08-12T02:49:34;20.60;1.00
3614;DHT22;1821;50.936;6.854;2023-08-12T02:50:16;20.70;1.00
3614;DHT22;1821;50.936;6.854;2023-08-12T02:51:01;20.60;1.00
3614;DHT22;1821;50.936;6.854;2023-08-12T02:51:45;20.70;1.00
3614;DHT22;1821;50.936;6.854;2023-08-12T02:52:27;20.60;1.00
3614;DHT22;1821;50.936;6.854;2023-08-12T02:53:10;20.60;1.00
3614;DHT22;1821;50.936;6.854;2023-08-12T02:53:52;20.60;1.00
3614;DHT22;1821;50.936;6.854;2023-08-12T02:54:34;20.60;1.00
3614;DHT22;1821;50.936;6.854;2023-08-12T02:55:16;20.60;1.00
3614;DHT22;1821;50.936;6.854;2023-08-12T02:55:58;20.60;1.00
3614;DHT22;1821;50.936;6.854;2023-08-12T02:56:40;20.70;1.00
3614;DHT22;1821;50.936;6.854;2023-08-12T02:57:22;20.60;1.00
3614;DHT22;1821;50.936;6.854;2023-08-12T02:58:05;20.60;1.00
3614;DHT22;1821;50.936;6.854;2023-08-12T02:58:47;20.60;1.00
3614;DHT22;1821;50.936;6.854;2023-08-12T02:59:29;20.70;1.00
3614;DHT22;1821;50.936;6.854;2023-08-12T03:00:12;20.70;1.00
3614;DHT22;1821;50.936;6.854;2023-08-12T03:00:55;20.60;1.00
3614;DHT22;1821;50.936;6.854;2023-08-12T03:01:37;20.70;1.00
3614;DHT22;1821;50.936;6.854;2023-08-12T03:02:19;20.60;1.00
3614;DHT22;1821;50.936;6.854;2023-08-12T03:03:01;20.60;1.00
3614;DHT22;1821;50.936;6.854;2023-08-12T03:03:43;20.60;1.00
3614;DHT22;1821;50.936;6.854;2023-08-12T03:05:08;20.70;1.00
3614;DHT22;1821;50.936;6.854;2023-08-12T03:05:50;20.70;1.00
3614;DHT22;1821;50.936;6.854;2023-08-12T03:06:32;20.70;38.30
3614;DHT22;1821;50.936;6.854;2023-08-12T03:07:16;20.60;82.80
3614;DHT22;1821;50.936;6.854;2023-08-12T03:07:59;20.80;85.20
3614;DHT22;1821;50.936;6.854;2023-08-12T03:08:43;20.60;60.60
3614;DHT22;1821;50.936;6.854;2023-08-12T03:09:25;20.60;99.90
3614;DHT22;1821;50.936;6.854;2023-08-12T03:10:07;20.60;99.90
3614;DHT22;1821;50.936;6.854;2023-08-12T03:10:49;20.70;99.90
3614;DHT22;1821;50.936;6.854;2023-08-12T03:11:31;20.70;99.90
3614;DHT22;1821;50.936;6.854;2023-08-12T03:12:13;20.70;99.90
3614;DHT22;1821;50.936;6.854;2023-08-12T03:12:58;20.70;99.90
3614;DHT22;1821;50.936;6.854;2023-08-12T03:13:40;20.70;99.90
3614;DHT22;1821;50.936;6.854;2023-08-12T03:14:22;20.70;99.90
3614;DHT22;1821;50.936;6.854;2023-08-12T03:15:07;20.70;99.90
3614;DHT22;1821;50.936;6.854;2023-08-12T03:15:49;20.60;99.90
3614;DHT22;1821;50.936;6.854;2023-08-12T03:16:31;20.60;99.90
3614;DHT22;1821;50.936;6.854;2023-08-12T03:17:13;20.60;99.90
3614;DHT22;1821;50.936;6.854;2023-08-12T03:17:56;20.50;99.90
3614;DHT22;1821;50.936;6.854;2023-08-12T03:19:26;20.60;99.90
3614;DHT22;1821;50.936;6.854;2023-08-12T03:20:08;20.70;99.90
3614;DHT22;1821;50.936;6.854;2023-08-12T03:20:50;20.60;99.90
3614;DHT22;1821;50.936;6.854;2023-08-12T03:21:32;20.70;99.90
3614;DHT22;1821;50.936;6.854;2023-08-12T03:22:16;20.60;99.90
3614;DHT22;1821;50.936;6.854;2023-08-12T03:22:57;20.80;99.90
3614;DHT22;1821;50.936;6.854;2023-08-12T03:23:40;20.60;99.90
3614;DHT22;1821;50.936;6.854;2023-08-12T03:24:22;20.70;99.90
3614;DHT22;1821;50.936;6.854;2023-08-12T03:25:05;20.70;99.90
3614;DHT22;1821;50.936;6.854;2023-08-12T03:25:48;20.60;1.00
3614;DHT22;1821;50.936;6.854;2023-08-12T03:26:30;20.70;1.00
3614;DHT22;1821;50.936;6.854;2023-08-12T03:27:12;20.70;1.00
3614;DHT22;1821;50.936;6.854;2023-08-12T03:27:56;20.60;1.00
3614;DHT22;1821;50.936;6.854;2023-08-12T03:28:38;20.60;1.00
3614;DHT22;1821;50.936;6.854;2023-08-12T03:29:20;20.70;1.00
3614;DHT22;1821;50.936;6.854;2023-08-12T03:30:03;20.70;1.00
3614;DHT22;1821;50.936;6.854;2023-08-12T03:31:34;20.70;1.00
3614;DHT22;1821;50.936;6.854;2023-08-12T03:32:16;20.60;1.00
3614;DHT22;1821;50.936;6.854;2023-08-12T03:32:58;20.70;1.00
3614;DHT22;1821;50.936;6.854;2023-08-12T03:33:40;20.60;1.00
3614;DHT22;1821;50.936;6.854;2023-08-12T03:34:22;20.70;1.00
3614;DHT22;1821;50.936;6.854;2023-08-12T03:35:04;20.60;1.00
3614;DHT22;1821;50.936;6.854;2023-08-12T03:35:47;20.60;1.00
3614;DHT22;1821;50.936;6.854;2023-08-12T03:36:29;20.50;1.00
3614;DHT22;1821;50.936;6.854;2023-08-12T03:37:11;20.50;1.00
3614;DHT22;1821;50.936;6.854;2023-08-12T03:37:56;20.60;1.00
3614;DHT22;1821;50.936;6.854;2023-08-12T03:38:37;20.60;1.00
3614;DHT22;1821;50.936;6.854;2023-08-12T03:39:20;20.60;1.00
3614;DHT22;1821;50.936;6.854;2023-08-12T03:40:02;20.60;1.00
3614;DHT22;1821;50.936;6.854;2023-08-12T03:40:45;20.70;1.00
3614;DHT22;1821;50.936;6.854;2023-08-12T03:41:27;20.60;1.00
3614;DHT22;1821;50.936;6.854;2023-08-12T03:42:10;20.60;1.00
3614;DHT22;1821;50.936;6.854;2023-08-12T03:42:52;20.80;1.00
3614;DHT22;1821;50.936;6.854;2023-08-12T03:43:37;20.60;1.00
3614;DHT22;1821;50.936;6.854;2023-08-12T03:44:19;20.60;1.00
3614;DHT22;1821;50.936;6.854;2023-08-12T03:45:01;17.50;1.00
3614;DHT22;1821;50.936;6.854;2023-08-12T03:45:44;20.70;1.00
3614;DHT22;1821;50.936;6.854;2023-08-12T03:46:26;20.50;1.00
3614;DHT22;1821;50.936;6.854;2023-08-12T03:47:50;20.60;1.00
3614;DHT22;1821;50.936;6.854;2023-08-12T03:48:32;20.60;1.00
3614;DHT22;1821;50.936;6.854;2023-08-12T03:49:15;20.50;1.00
3614;DHT22;1821;50.936;6.854;2023-08-12T03:49:57;20.50;1.00
3614;DHT22;1821;50.936;6.854;2023-08-12T03:50:39;20.40;1.00
3614;DHT22;1821;50.936;6.854;2023-08-12T03:51:24;20.50;1.00
3614;DHT22;1821;50.936;6.854;2023-08-12T03:52:06;20.50;1.00
3614;DHT22;1821;50.936;6.854;2023-08-12T03:52:51;20.50;1.00
3614;DHT22;1821;50.936;6.854;2023-08-12T03:53:32;20.50;20.50
3614;DHT22;1821;50.936;6.854;2023-08-12T03:54:14;20.60;99.90
3614;DHT22;1821;50.936;6.854;2023-08-12T03:54:56;20.50;99.90
3614;DHT22;1821;50.936;6.854;2023-08-12T03:55:41;20.50;99.90
3614;DHT22;1821;50.936;6.854;2023-08-12T03:56:26;20.50;99.90
3614;DHT22;1821;50.936;6.854;2023-08-12T03:57:11;20.60;99.90
3614;DHT22;1821;50.936;6.854;2023-08-12T03:57:53;20.40;99.90
3614;DHT22;1821;50.936;6.854;2023-08-12T03:58:37;20.70;99.90
3614;DHT22;1821;50.936;6.854;2023-08-12T03:59:22;20.40;99.90
3614;DHT22;1821;50.936;6.854;2023-08-12T04:00:04;20.50;99.90
3614;DHT22;1821;50.936;6.854;2023-08-12T04:00:51;20.50;99.90
3614;DHT22;1821;50.936;6.854;2023-08-12T04:01:33;20.60;99.90
3614;DHT22;1821;50.936;6.854;2023-08-12T04:02:15;20.40;99.90
3614;DHT22;1821;50.936;6.854;2023-08-12T04:03:39;20.50;99.90
3614;DHT22;1821;50.936;6.854;2023-08-12T04:04:21;20.40;99.90
3614;DHT22;1821;50.936;6.854;2023-08-12T04:05:06;20.50;99.90
3614;DHT22;1821;50.936;6.854;2023-08-12T04:05:52;20.40;99.90
3614;DHT22;1821;50.936;6.854;2023-08-12T04:06:34;20.40;99.90
3614;DHT22;1821;50.936;6.854;2023-08-12T04:07:16;20.50;99.90
3614;DHT22;1821;50.936;6.854;2023-08-12T04:07:58;20.40;1.00
3614;DHT22;1821;50.936;6.854;2023-08-12T04:08:41;20.40;99.90
3614;DHT22;1821;50.936;6.854;2023-08-12T04:09:23;20.40;99.90
3614;DHT22;1821;50.936;6.854;2023-08-12T04:10:06;20.50;99.90
3614;DHT22;1821;50.936;6.854;2023-08-12T04:10:48;20.40;99.90
3614;DHT22;1821;50.936;6.854;2023-08-12T04:11:30;20.50;99.90
3614;DHT22;1821;50.936;6.854;2023-08-12T04:12:12;20.40;99.90
3614;DHT22;1821;50.936;6.854;2023-08-12T04:12:54;20.50;99.90
3614;DHT22;1821;50.936;6.854;2023-08-12T04:13:36;20.40;99.90
3614;DHT22;1821;50.936;6.854;2023-08-12T04:14:18;20.60;99.90
3614;DHT22;1821;50.936;6.854;2023-08-12T04:15:03;20.40;99.90
3614;DHT22;1821;50.936;6.854;2023-08-12T04:15:50;20.40;99.90
3614;DHT22;1821;50.936;6.854;2023-08-12T04:16:32;20.50;99.90
3614;DHT22;1821;50.936;6.854;2023-08-12T04:17:15;20.60;99.90
3614;DHT22;1821;50.936;6.854;2023-08-12T04:17:56;20.40;99.90
3614;DHT22;1821;50.936;6.854;2023-08-12T04:18:40;20.40;99.90
3614;DHT22;1821;50.936;6.854;2023-08-12T04:19:22;20.40;99.90
3614;DHT22;1821;50.936;6.854;2023-08-12T04:20:04;20.50;99.90
3614;DHT22;1821;50.936;6.854;2023-08-12T04:20:49;20.40;99.90
3614;DHT22;1821;50.936;6.854;2023-08-12T04:21:31;20.40;99.90
3614;DHT22;1821;50.936;6.854;2023-08-12T04:22:13;20.40;99.90
3614;DHT22;1821;50.936;6.854;2023-08-12T04:22:55;20.50;99.90
3614;DHT22;1821;50.936;6.854;2023-08-12T04:23:39;20.50;99.90
3614;DHT22;1821;50.936;6.854;2023-08-12T04:24:21;20.50;99.90
3614;DHT22;1821;50.936;6.854;2023-08-12T04:25:06;20.40;99.90
3614;DHT22;1821;50.936;6.854;2023-08-12T04:25:49;20.50;99.90
3614;DHT22;1821;50.936;6.854;2023-08-12T04:26:34;20.40;99.90
3614;DHT22;1821;50.936;6.854;2023-08-12T04:27:16;20.40;99.90
3614;DHT22;1821;50.936;6.854;2023-08-12T04:28:01;20.60;99.90
3614;DHT22;1821;50.936;6.854;2023-08-12T04:28:43;20.50;99.90
3614;DHT22;1821;50.936;6.854;2023-08-12T04:29:25;20.60;99.90
3614;DHT22;1821;50.936;6.854;2023-08-12T04:30:07;20.50;99.90
3614;DHT22;1821;50.936;6.854;2023-08-12T04:30:50;20.50;99.90
3614;DHT22;1821;50.936;6.854;2023-08-12T04:31:32;20.40;97.20
3614;DHT22;1821;50.936;6.854;2023-08-12T04:32:15;20.30;1.00
3614;DHT22;1821;50.936;6.854;2023-08-12T04:32:57;20.60;1.00
3614;DHT22;1821;50.936;6.854;2023-08-12T04:33:41;20.50;1.00
3614;DHT22;1821;50.936;6.854;2023-08-12T04:34:23;20.40;1.00
3614;DHT22;1821;50.936;6.854;2023-08-12T04:35:05;20.40;1.00
3614;DHT22;1821;50.936;6.854;2023-08-12T04:35:50;20.50;1.00
3614;DHT22;1821;50.936;6.854;2023-08-12T04:36:36;20.40;1.00
3614;DHT22;1821;50.936;6.854;2023-08-12T04:37:18;20.40;99.90
3614;DHT22;1821;50.936;6.854;2023-08-12T04:38:00;20.40;99.90
3614;DHT22;1821;50.936;6.854;2023-08-12T04:38:42;20.50;99.90
3614;DHT22;1821;50.936;6.854;2023-08-12T04:39:24;20.50;99.90
3614;DHT22;1821;50.936;6.854;2023-08-12T04:40:50;20.50;99.70
3614;DHT22;1821;50.936;6.854;2023-08-12T04:41:32;20.60;74.60
3614;DHT22;1821;50.936;6.854;2023-08-12T04:42:15;20.50;1.00
3614;DHT22;1821;50.936;6.854;2023-08-12T04:42:57;20.50;1.00
3614;DHT22;1821;50.936;6.854;2023-08-12T04:43:38;20.50;1.00
3614;DHT22;1821;50.936;6.854;2023-08-12T04:44:20;20.50;1.00
3614;DHT22;1821;50.936;6.854;2023-08-12T04:45:03;20.50;1.00
3614;DHT22;1821;50.936;6.854;2023-08-12T04:45:46;20.50;1.00
3614;DHT22;1821;50.936;6.854;2023-08-12T04:46:31;20.60;1.00
3614;DHT22;1821;50.936;6.854;2023-08-12T04:47:16;20.60;99.90
3614;DHT22;1821;50.936;6.854;2023-08-12T04:47:58;20.60;99.90
3614;DHT22;1821;50.936;6.854;2023-08-12T04:48:41;20.60;99.90
3614;DHT22;1821;50.936;6.854;2023-08-12T04:49:23;20.60;99.90
3614;DHT22;1821;50.936;6.854;2023-08-12T04:50:05;20.60;99.90
3614;DHT22;1821;50.936;6.854;2023-08-12T04:50:48;20.60;99.90
3614;DHT22;1821;50.936;6.854;2023-08-12T04:51:30;20.50;99.90